Main page
METAR-TAF:

METAR-TAF

Airports :

Saskatoon, Saskatchewan, Canada

Saskatoon John G. Diefenbaker International Airport

latitude: 52-10N, longitude: 106-41W, elevation: 501 m

Current weather observation

The report was made 52 minutes ago, at 08:00 UTC
Wind 9 kt from the South
Temperature 11°C
Humidity 62%
Pressure 1023 hPa
Visibility: 24.1 km
Clear sky

METAR: CYXE 260800Z 17009KT 15SM SKC 11/04 A3021 RMK SLP240

Time: 02:52 (08:52 UTC)

Forecast

The report was made 3 hours and 14 minutes ago, at 05:38 UTC
Forecast valid from 26 at 06 UTC to 27 at 06 UTC
Wind 8 kt from the South/Southeast
Visibility: 10 km
Clear sky
Becoming
from 26 at 14 UTC to 26 at 16 UTC
Wind 12 kt from the South/Southeast
From 26 at 1900 UTC
Wind 18 kt from the South/Southeast
Visibility: 10 km
Scattered clouds at a height of 18000 ft
Broken clouds at a height of 24000 ft

TAF: CYXE 260538Z 2606/2706 15008KT P6SM SKC BECMG 2614/2616 16012KT FM261900 16018KT P6SM SCT180 BKN240 RMK NXT FCST BY 261200Z

Weather observations and forecasts of more than 4000 airports (METAR and TAF reports).

The available stations are represented by yellow and red dots on the map.

Hover mouse over dot to see the name of the station.

Then click to see weather observations and forecasts.

To change the map : click on the green buttons with a black cross to zoom in, on the green button with a dash to zoom out, or on the green arrows for adjacent maps.


METAR-TAF: